M I D A S
Marine Information and Data Acquisition System
Tripno 973 of the Zeeleeuw from 2005-10-18 06:32:33 to 2005-10-18 12:00:50
Back to CruiseResearch ActivitiesStationsMapUnderway DataData graphs

EquipmentUnitsComment
TimeDGPSUTC
LatitudeDGPSDM.mWGS84
LongitudeDGPSDM.mWGS84
HeadingGyrodeg 
SOGDGPSknotsSpeed over ground
COGDGPSdegCourse over ground
DepthEcho soundermeters200 kHz
Missing or incorrect values are displayed as -999
Navigation data collected by the RV Zeeleeuw from 2005-10-18 06:32:07 to 2005-10-18 12:07:32
                                                                                    Next 1000 lines
Time Latitude Longitude Heading SOG COG Depth
2005-10-18 06:32:17 51°13.602 2°56.094 112.9 0.9 296 4.8
2005-10-18 06:32:22 51°13.603 2°56.091 113.1 0.9 296 4.9
2005-10-18 06:32:27 51°13.604 2°56.088 113.5 1.6 292 5.1
2005-10-18 06:32:33 51°13.605 2°56.083 114.1 2 295 -999
2005-10-18 06:32:37 51°13.606 2°56.079 114.8 2.2 295 -999
2005-10-18 06:32:42 51°13.608 2°56.074 115.4 2.3 295 -999
2005-10-18 06:32:47 51°13.609 2°56.069 116.1 2.5 295 6.4
2005-10-18 06:32:53 51°13.611 2°56.063 116.6 2.7 296 -999
2005-10-18 06:32:58 51°13.613 2°56.057 117.2 2.9 296 -999
2005-10-18 06:33:02 51°13.615 2°56.052 117.8 3.1 297 -999
2005-10-18 06:33:07 51°13.617 2°56.046 118.1 3.2 297 -999
2005-10-18 06:33:11 51°13.618 2°56.04 118.1 3.4 296 -999
2005-10-18 06:33:17 51°13.621 2°56.032 117.8 3.5 297 -999
2005-10-18 06:33:22 51°13.623 2°56.025 117.5 3.5 296 -999
2005-10-18 06:33:27 51°13.625 2°56.018 117.2 3.6 296 -999
2005-10-18 06:33:31 51°13.627 2°56.012 116.7 3.6 294 -999
2005-10-18 06:33:37 51°13.629 2°56.003 116.1 3.7 293 6.4
2005-10-18 06:33:42 51°13.632 2°55.995 115.6 3.8 293 -999
2005-10-18 06:33:47 51°13.634 2°55.987 115.4 4 293 -999
2005-10-18 06:33:51 51°13.635 2°55.98 115.3 4.1 292 -999
2005-10-18 06:33:57 51°13.638 2°55.97 115.3 4.2 292 6.2
2005-10-18 06:34:02 51°13.64 2°55.961 115.8 4.2 293 6.4
2005-10-18 06:34:08 51°13.643 2°55.951 116.8 4.2 293 -999
2005-10-18 06:34:11 51°13.644 2°55.946 118.2 4.3 296 -999
2005-10-18 06:34:17 51°13.648 2°55.935 119.9 4.5 296 6.2
2005-10-18 06:34:22 51°13.651 2°55.926 121.5 4.6 298 -999
2005-10-18 06:34:27 51°13.654 2°55.917 123 4.7 298 -999
2005-10-18 06:34:33 51°13.658 2°55.906 124.1 4.7 300 -999
2005-10-18 06:34:37 51°13.661 2°55.899 125 4.7 300 -999
2005-10-18 06:34:43 51°13.665 2°55.888 125.8 4.7 301 -999
2005-10-18 06:34:47 51°13.667 2°55.881 126.4 4.7 302 -999
2005-10-18 06:34:53 51°13.672 2°55.871 126.9 4.7 303 -999
2005-10-18 06:34:57 51°13.675 2°55.864 127.2 4.7 303 -999
2005-10-18 06:35:03 51°13.68 2°55.853 127.5 4.8 304 -999
2005-10-18 06:35:07 51°13.683 2°55.846 127.7 4.9 304 -999
2005-10-18 06:35:13 51°13.688 2°55.835 128.4 5 305 -999
2005-10-18 06:35:17 51°13.692 2°55.828 129.1 5.1 306 -999
2005-10-18 06:35:22 51°13.696 2°55.819 129.8 5.1 306 -999
2005-10-18 06:35:27 51°13.701 2°55.809 130.4 5.3 307 -999
2005-10-18 06:35:33 51°13.706 2°55.798 131 5.4 307 -999
2005-10-18 06:35:38 51°13.711 2°55.788 131.9 5.5 308 -999
2005-10-18 06:35:43 51°13.716 2°55.779 132.8 5.6 308 -999
2005-10-18 06:35:47 51°13.719 2°55.771 134.2 5.6 310 -999
2005-10-18 06:35:51 51°13.723 2°55.764 135.6 5.7 311 6.2
2005-10-18 06:35:57 51°13.73 2°55.752 137.1 5.8 313 -999
2005-10-18 06:36:03 51°13.736 2°55.741 138.6 5.8 314 -999
2005-10-18 06:36:07 51°13.741 2°55.734 140.3 5.8 316 -999
2005-10-18 06:36:11 51°13.746 2°55.727 141.9 5.8 317 -999
2005-10-18 06:36:17 51°13.753 2°55.717 143.7 5.9 318 -999
2005-10-18 06:36:23 51°13.761 2°55.707 145.5 5.9 320 -999
2005-10-18 06:36:27 51°13.766 2°55.701 147.4 5.9 323 6.4
2005-10-18 06:36:31 51°13.771 2°55.694 149.6 6 325 -999
2005-10-18 06:36:37 51°13.779 2°55.686 151.7 6 326 -999
2005-10-18 06:36:42 51°13.786 2°55.679 153.7 6 328 -999
2005-10-18 06:36:47 51°13.794 2°55.672 155.5 6.1 330 6.2
2005-10-18 06:36:53 51°13.803 2°55.665 157.6 6.1 332 -999
2005-10-18 06:36:57 51°13.809 2°55.66 159.8 6.2 335 6.4
2005-10-18 06:37:02 51°13.817 2°55.655 161.7 6.3 338 -999
2005-10-18 06:37:07 51°13.825 2°55.65 164.2 6.2 340 -999
2005-10-18 06:37:13 51°13.835 2°55.645 167.5 6.1 342 -999
2005-10-18 06:37:17 51°13.841 2°55.643 170.3 6 345 -999
2005-10-18 06:37:23 51°13.851 2°55.64 173.3 6 348 -999
2005-10-18 06:37:27 51°13.857 2°55.638 176.6 5.9 350 -999
2005-10-18 06:37:32 51°13.865 2°55.637 180.4 5.8 354 -999
2005-10-18 06:37:38 51°13.875 2°55.637 183.6 5.7 359 -999
2005-10-18 06:37:42 51°13.881 2°55.638 187.7 5.6 3 5.8
2005-10-18 06:37:47 51°13.889 2°55.64 191.6 5.6 6 -999
2005-10-18 06:37:51 51°13.894 2°55.641 195.2 5.5 9 6.3
2005-10-18 06:37:58 51°13.905 2°55.645 198.8 5.4 12 -999
2005-10-18 06:38:03 51°13.911 2°55.648 201.3 5.3 15 -999
2005-10-18 06:38:07 51°13.917 2°55.651 205.2 5 17 -999
2005-10-18 06:38:11 51°13.921 2°55.653 208.1 4.6 19 -999
2005-10-18 06:38:18 51°13.929 2°55.659 210.7 4.4 22 -999
2005-10-18 06:38:23 51°13.934 2°55.662 213.1 4.2 24 -999
2005-10-18 06:38:27 51°13.938 2°55.665 214.9 4 24 5
2005-10-18 06:38:31 51°13.941 2°55.668 217.3 3.5 28 4.8
2005-10-18 06:38:37 51°13.946 2°55.671 219.5 3 29 8.8
2005-10-18 06:38:42 51°13.948 2°55.674 222.7 2.4 29 -999
2005-10-18 06:38:47 51°13.95 2°55.675 226.6 1.5 22 -999
2005-10-18 06:38:52 51°13.951 2°55.674 230.2 0.7 5 8.8
2005-10-18 06:38:57 51°13.951 2°55.673 234.2 0.6 321 8.8
2005-10-18 06:39:02 51°13.95 2°55.67 240.2 1.1 272 8.9
2005-10-18 06:39:07 51°13.95 2°55.665 247.4 1.8 265 9
2005-10-18 06:39:11 51°13.95 2°55.66 255.8 2.5 269 9.1
2005-10-18 06:39:17 51°13.951 2°55.652 264.1 2.8 270 9.3
2005-10-18 06:39:22 51°13.952 2°55.644 270.7 2.8 270 9.2
2005-10-18 06:39:27 51°13.954 2°55.635 280.9 4 288 10
2005-10-18 06:39:31 51°13.956 2°55.628 289.4 4.5 294 9.3
2005-10-18 06:39:37 51°13.961 2°55.616 297.5 5 302 9.9
2005-10-18 06:39:42 51°13.965 2°55.606 302.9 5 302 9.3
2005-10-18 06:39:47 51°13.971 2°55.596 309.1 5.9 310 9.3
2005-10-18 06:39:51 51°13.975 2°55.587 311.9 6.3 309 9
2005-10-18 06:39:57 51°13.983 2°55.573 312.5 6.7 309 8.5
2005-10-18 06:40:02 51°13.989 2°55.561 313.4 6.7 309 8.3
2005-10-18 06:40:07 51°13.997 2°55.55 315.7 6.7 309 8.1
2005-10-18 06:40:11 51°14.003 2°55.54 317.8 6.7 309 8.6
2005-10-18 06:40:18 51°14.015 2°55.525 321.4 7.9 321 -999
2005-10-18 06:40:22 51°14.022 2°55.516 324.8 8.1 324 8.6
2005-10-18 06:40:27 51°14.032 2°55.506 328.2 8.1 324 8.7
2005-10-18 06:40:32 51°14.042 2°55.496 331.6 8.6 329 8.7
2005-10-18 06:40:37 51°14.052 2°55.485 332.8 8.9 328 8.6
2005-10-18 06:40:42 51°14.063 2°55.475 332.4 9 327 8.6
2005-10-18 06:40:47 51°14.075 2°55.464 333.2 9.3 330 -999
2005-10-18 06:40:53 51°14.088 2°55.452 334.2 9.5 330 -999
2005-10-18 06:40:57 51°14.098 2°55.443 335.1 9.6 331 -999
2005-10-18 06:41:03 51°14.112 2°55.43 335.5 9.9 330 -999
2005-10-18 06:41:07 51°14.122 2°55.422 335.3 10 331 -999
2005-10-18 06:41:11 51°14.132 2°55.413 335.3 10.2 331 -999
2005-10-18 06:41:17 51°14.147 2°55.4 335.7 10.3 331 -999
2005-10-18 06:41:23 51°14.162 2°55.386 335.5 10.4 331 -999
2005-10-18 06:41:27 51°14.172 2°55.376 334.1 10.5 329 -999
2005-10-18 06:41:33 51°14.186 2°55.361 333.5 10.5 328 -999
2005-10-18 06:41:37 51°14.196 2°55.35 332.6 10.5 328 -999
2005-10-18 06:41:42 51°14.208 2°55.337 330.8 10.5 324 -999
2005-10-18 06:41:47 51°14.219 2°55.322 328.2 10.5 322 8.6
2005-10-18 06:41:51 51°14.228 2°55.31 325.1 10.5 318 9
2005-10-18 06:41:57 51°14.241 2°55.29 322.9 10.5 316 8.6
2005-10-18 06:42:03 51°14.253 2°55.27 320 10.6 314 -999
2005-10-18 06:42:07 51°14.261 2°55.256 318.5 10.6 313 -999
2005-10-18 06:42:11 51°14.268 2°55.242 317.1 10.6 311 8.9
2005-10-18 06:42:18 51°14.282 2°55.217 315.9 10.6 310 -999
2005-10-18 06:42:22 51°14.289 2°55.202 315 10.7 310 -999
2005-10-18 06:42:27 51°14.299 2°55.184 314.2 10.8 309 9
2005-10-18 06:42:32 51°14.308 2°55.165 313.9 10.8 309 9
2005-10-18 06:42:37 51°14.318 2°55.146 313.3 10.8 309 9
2005-10-18 06:42:42 51°14.327 2°55.127 312.9 10.9 308 8.9
2005-10-18 06:42:47 51°14.336 2°55.108 312.8 11.1 308 8.8
2005-10-18 06:42:51 51°14.344 2°55.093 312.6 11.1 308 8.8
2005-10-18 06:42:57 51°14.356 2°55.069 312.5 11.2 308 8.7
2005-10-18 06:43:02 51°14.366 2°55.05 312.8 11.2 308 8.8
2005-10-18 06:43:07 51°14.377 2°55.03 313.2 11.5 308 8.9
2005-10-18 06:43:12 51°14.388 2°55.01 314.4 11.5 308 8.7
2005-10-18 06:43:17 51°14.4 2°54.991 316.8 12.2 314 8.8
2005-10-18 06:43:22 51°14.413 2°54.973 320 12.3 317 9.1
2005-10-18 06:43:27 51°14.426 2°54.955 323.7 12.4 318 8.7
2005-10-18 06:43:31 51°14.436 2°54.94 324.9 12.6 318 8.6
2005-10-18 06:43:37 51°14.453 2°54.918 326.5 12.7 321 8.6
2005-10-18 06:43:42 51°14.466 2°54.9 328.1 12.9 319 8.5
2005-10-18 06:43:47 51°14.481 2°54.884 331.5 12.8 323 8.3
2005-10-18 06:43:51 51°14.492 2°54.871 334.9 12.7 326 8.3
2005-10-18 06:43:57 51°14.51 2°54.855 338.3 12.6 328 8
2005-10-18 06:44:02 51°14.526 2°54.842 340.4 12.5 331 8
2005-10-18 06:44:07 51°14.541 2°54.83 342.9 12.5 334 8
2005-10-18 06:44:11 51°14.554 2°54.821 345 12.5 335 8
2005-10-18 06:44:17 51°14.573 2°54.807 346.3 12.5 335 8
2005-10-18 06:44:22 51°14.588 2°54.795 346.7 12.5 335 7.9
2005-10-18 06:44:27 51°14.604 2°54.784 347.1 12.5 335 7.8
2005-10-18 06:44:31 51°14.617 2°54.775 347.6 12.5 335 7.8
2005-10-18 06:44:37 51°14.636 2°54.761 348 12.5 336 7.8
2005-10-18 06:44:42 51°14.652 2°54.75 348.3 12.5 336 7.8
2005-10-18 06:44:47 51°14.667 2°54.739 348.4 12.5 337 7.7
2005-10-18 06:44:52 51°14.684 2°54.729 348.6 12.5 338 7.7
2005-10-18 06:44:57 51°14.7 2°54.718 348.9 12.5 337 7.6
2005-10-18 06:45:02 51°14.715 2°54.706 348.3 12.5 336 7.5
2005-10-18 06:45:07 51°14.731 2°54.694 346.9 12.5 334 7.5
2005-10-18 06:45:11 51°14.743 2°54.684 345.5 12.6 333 7.7
2005-10-18 06:45:17 51°14.761 2°54.668 343.7 12.6 331 7.4
2005-10-18 06:45:22 51°14.776 2°54.653 341.7 12.5 330 7.4
2005-10-18 06:45:27 51°14.791 2°54.639 339.4 12.5 329 5.5
2005-10-18 06:45:31 51°14.803 2°54.627 338.6 12.5 329 7.4
2005-10-18 06:45:37 51°14.82 2°54.609 337.4 12.5 327 7.3
2005-10-18 06:45:42 51°14.835 2°54.593 336.3 12.5 326 7.2
2005-10-18 06:45:47 51°14.849 2°54.578 335.4 12.5 326 7.3
2005-10-18 06:45:52 51°14.863 2°54.561 334.8 12.5 326 7.1
2005-10-18 06:45:57 51°14.877 2°54.546 334.1 12.5 325 7.1
2005-10-18 06:46:02 51°14.891 2°54.531 334.2 12.4 326 7.1
2005-10-18 06:46:07 51°14.906 2°54.516 334.5 12.4 327 7
2005-10-18 06:46:11 51°14.918 2°54.504 335.1 12.4 327 7
2005-10-18 06:46:17 51°14.936 2°54.489 336.9 12.3 331 6.9
2005-10-18 06:46:22 51°14.951 2°54.478 339.9 12.3 331 6.9
2005-10-18 06:46:27 51°14.967 2°54.468 343.1 12.2 337 7
2005-10-18 06:46:32 51°14.983 2°54.459 345.7 12.2 337 6.8
2005-10-18 06:46:37 51°14.999 2°54.45 347.7 12 340 6.8
2005-10-18 06:46:42 51°15.014 2°54.442 348.9 11.9 341 6.8
2005-10-18 06:46:47 51°15.03 2°54.433 349.6 11.9 341 6.7
2005-10-18 06:46:52 51°15.045 2°54.424 349.8 11.8 340 6.6
2005-10-18 06:46:57 51°15.06 2°54.414 349.7 11.8 339 6.6
2005-10-18 06:47:02 51°15.075 2°54.404 348.8 11.9 338 6.6
2005-10-18 06:47:07 51°15.09 2°54.394 347.6 11.8 337 6.6
2005-10-18 06:47:12 51°15.105 2°54.383 346.7 11.8 336 6.5
2005-10-18 06:47:17 51°15.12 2°54.372 345.6 11.8 335 6.5
2005-10-18 06:47:22 51°15.135 2°54.36 344.7 11.8 335 6.6
2005-10-18 06:47:27 51°15.149 2°54.348 344 11.9 334 6.6
2005-10-18 06:47:32 51°15.164 2°54.336 343.5 11.9 334 6.7
2005-10-18 06:47:37 51°15.179 2°54.324 343.3 11.8 333 6.7
2005-10-18 06:47:42 51°15.193 2°54.312 343.2 11.9 333 6.7
2005-10-18 06:47:47 51°15.208 2°54.3 343.3 12 333 6.8
2005-10-18 06:47:51 51°15.22 2°54.291 343.7 12 334 6.8
2005-10-18 06:47:57 51°15.239 2°54.278 344.7 12.1 335 6.9
2005-10-18 06:48:02 51°15.254 2°54.267 345.5 12.1 337 6.9
2005-10-18 06:48:07 51°15.27 2°54.257 346.6 12.2 336 7
2005-10-18 06:48:11 51°15.282 2°54.249 347.2 12.1 337 7
2005-10-18 06:48:17 51°15.301 2°54.236 348.1 12.2 338 7.1
2005-10-18 06:48:22 51°15.316 2°54.225 348.3 12.2 337 7.1
2005-10-18 06:48:27 51°15.332 2°54.213 347.6 12.4 335 7.3
2005-10-18 06:48:31 51°15.344 2°54.203 346.3 12.4 333 5.5
2005-10-18 06:48:37 51°15.362 2°54.187 344.9 12.5 332 5.6
2005-10-18 06:48:42 51°15.377 2°54.173 343.1 12.6 329 7.4
2005-10-18 06:48:47 51°15.392 2°54.157 340.1 12.6 328 7.5
2005-10-18 06:48:52 51°15.406 2°54.141 338.3 12.6 328 7.6
2005-10-18 06:48:57 51°15.42 2°54.124 336.2 12.7 323 7.7
2005-10-18 06:49:02 51°15.434 2°54.106 334.8 12.7 323 7.7
2005-10-18 06:49:07 51°15.448 2°54.089 334.1 12.9 322 7.8
2005-10-18 06:49:11 51°15.46 2°54.075 333.8 12.9 322 7.9
2005-10-18 06:49:17 51°15.477 2°54.054 334.2 12.9 323 7.9
2005-10-18 06:49:22 51°15.492 2°54.038 335.3 12.9 324 8
2005-10-18 06:49:27 51°15.507 2°54.024 337.3 12.9 325 8.1
2005-10-18 06:49:32 51°15.523 2°54.01 340.5 12.9 329 8.3
2005-10-18 06:49:37 51°15.538 2°53.997 343.3 12.7 332 8.4
2005-10-18 06:49:42 51°15.554 2°53.984 344.9 12.7 333 8.3
2005-10-18 06:49:47 51°15.57 2°53.972 346.2 12.7 334 8.4
2005-10-18 06:49:52 51°15.586 2°53.959 346.9 12.8 334 8.6
2005-10-18 06:49:57 51°15.602 2°53.946 347.1 12.8 334 8.6
2005-10-18 06:50:02 51°15.618 2°53.934 347 12.9 333 8.7
2005-10-18 06:50:07 51°15.633 2°53.92 346.5 12.8 332 8.7
2005-10-18 06:50:11 51°15.646 2°53.909 345.9 12.9 332 8.8
2005-10-18 06:50:17 51°15.665 2°53.893 345.3 12.9 332 8.8
2005-10-18 06:50:22 51°15.681 2°53.88 345.4 12.9 332 8.9
2005-10-18 06:50:27 51°15.697 2°53.867 345.4 12.9 332 9
2005-10-18 06:50:31 51°15.709 2°53.856 345.4 12.9 332 9
2005-10-18 06:50:37 51°15.728 2°53.84 345.5 13 332 9.1
2005-10-18 06:50:42 51°15.744 2°53.827 345.8 12.9 332 9.2
2005-10-18 06:50:47 51°15.76 2°53.814 345.8 12.9 333 9.1
2005-10-18 06:50:51 51°15.773 2°53.804 346 12.8 333 9.2
2005-10-18 06:50:57 51°15.792 2°53.787 346 12.8 332 9.2
2005-10-18 06:51:02 51°15.807 2°53.775 345.4 12.8 332 9.3
2005-10-18 06:51:07 51°15.823 2°53.761 345.1 12.9 332 9.3
2005-10-18 06:51:12 51°15.839 2°53.747 344.7 12.9 332 9.3
2005-10-18 06:51:17 51°15.854 2°53.734 344.3 12.8 331 9.4
2005-10-18 06:51:22 51°15.87 2°53.721 344 12.8 331 9.5
2005-10-18 06:51:27 51°15.886 2°53.708 344.1 12.8 333 9.3
2005-10-18 06:51:31 51°15.898 2°53.698 344.7 12.8 334 9.5
2005-10-18 06:51:37 51°15.917 2°53.682 345.3 12.7 333 9.5
2005-10-18 06:51:42 51°15.933 2°53.67 344.8 12.7 333 9.6
2005-10-18 06:51:47 51°15.948 2°53.657 344.8 12.8 333 9.6
2005-10-18 06:51:51 51°15.961 2°53.647 344.7 12.7 333 9.6
2005-10-18 06:51:57 51°15.98 2°53.631 344.5 12.7 333 9.7
2005-10-18 06:52:02 51°15.996 2°53.618 344.1 12.7 332 9.8
2005-10-18 06:52:07 51°16.011 2°53.605 343.8 12.7 332 9.7
2005-10-18 06:52:11 51°16.024 2°53.595 343.9 12.7 333 9.7
2005-10-18 06:52:17 51°16.043 2°53.579 343.8 12.8 331 9.9
2005-10-18 06:52:22 51°16.058 2°53.565 343.6 12.8 331 9.8
2005-10-18 06:52:27 51°16.074 2°53.552 343.3 12.8 331 9.9
2005-10-18 06:52:31 51°16.086 2°53.541 343.3 12.8 331 9.9
2005-10-18 06:52:37 51°16.105 2°53.525 343.4 12.8 331 10
2005-10-18 06:52:42 51°16.121 2°53.511 343.7 12.8 332 10
2005-10-18 06:52:47 51°16.136 2°53.498 344 12.8 332 10.2
2005-10-18 06:52:51 51°16.148 2°53.487 344.2 12.8 332 10.1
2005-10-18 06:52:57 51°16.167 2°53.471 344.3 12.7 332 10.2
2005-10-18 06:53:02 51°16.183 2°53.458 344 12.7 332 10.1
2005-10-18 06:53:07 51°16.198 2°53.445 344 12.7 332 10.2
2005-10-18 06:53:12 51°16.214 2°53.431 344.1 12.7 332 10.1
2005-10-18 06:53:17 51°16.229 2°53.418 344.1 12.7 331 10.2
2005-10-18 06:53:22 51°16.244 2°53.404 343.9 12.7 331 10.3
2005-10-18 06:53:27 51°16.26 2°53.39 343.3 12.7 330 10.2
2005-10-18 06:53:31 51°16.272 2°53.379 343.2 12.7 330 10.2
2005-10-18 06:53:37 51°16.29 2°53.362 343.1 12.8 330 10.3
2005-10-18 06:53:42 51°16.306 2°53.349 343.1 12.7 330 10.4
2005-10-18 06:53:47 51°16.321 2°53.335 343.3 12.7 331 10.3
2005-10-18 06:53:51 51°16.334 2°53.325 343.9 12.7 332 10.4
2005-10-18 06:53:57 51°16.352 2°53.309 344.6 12.7 332 10.4
2005-10-18 06:54:02 51°16.368 2°53.296 344.7 12.7 333 10.4
2005-10-18 06:54:07 51°16.384 2°53.283 345.1 12.7 333 10.3
2005-10-18 06:54:11 51°16.396 2°53.273 345.3 12.7 333 10.4
2005-10-18 06:54:17 51°16.415 2°53.258 345.3 12.6 333 10.4
2005-10-18 06:54:22 51°16.431 2°53.245 344.8 12.6 333 10.3
2005-10-18 06:54:27 51°16.446 2°53.233 344.9 12.6 333 10.3
2005-10-18 06:54:31 51°16.459 2°53.222 344.8 12.6 333 10.2
2005-10-18 06:54:37 51°16.478 2°53.208 344.7 12.7 333 10.4
2005-10-18 06:54:42 51°16.493 2°53.196 344.9 12.6 334 10.3
2005-10-18 06:54:47 51°16.509 2°53.184 344.7 12.7 335 10.3
2005-10-18 06:54:51 51°16.522 2°53.174 344.8 12.7 334 10.2
2005-10-18 06:54:57 51°16.541 2°53.159 344.8 12.7 334 10.1
2005-10-18 06:55:02 51°16.556 2°53.147 344.6 12.6 334 10.2
2005-10-18 06:55:07 51°16.572 2°53.135 344.4 12.6 334 10
2005-10-18 06:55:11 51°16.585 2°53.125 344.4 12.6 334 10.1
2005-10-18 06:55:17 51°16.604 2°53.111 344.4 12.6 335 9.9
2005-10-18 06:55:22 51°16.62 2°53.099 344.4 12.6 335 9.9
2005-10-18 06:55:27 51°16.635 2°53.087 344.5 12.6 335 9.9
2005-10-18 06:55:32 51°16.651 2°53.076 344.3 12.6 335 9.9
2005-10-18 06:55:37 51°16.667 2°53.064 344.5 12.6 336 9.8
2005-10-18 06:55:42 51°16.683 2°53.052 344.6 12.5 335 9.6
2005-10-18 06:55:47 51°16.698 2°53.041 344.6 12.6 336 9.6
2005-10-18 06:55:52 51°16.714 2°53.029 344.7 12.5 335 9.5
2005-10-18 06:55:57 51°16.73 2°53.018 344.7 12.5 336 9.4
2005-10-18 06:56:02 51°16.746 2°53.006 344.7 12.5 335 9.3
2005-10-18 06:56:07 51°16.761 2°52.995 344.7 12.4 336 9.1
2005-10-18 06:56:12 51°16.777 2°52.984 344.7 12.5 337 9
2005-10-18 06:56:17 51°16.793 2°52.973 344.7 12.4 335 8.7
2005-10-18 06:56:22 51°16.808 2°52.961 344.8 12.3 336 8.4
2005-10-18 06:56:27 51°16.824 2°52.95 344.8 12.2 336 7.8
2005-10-18 06:56:32 51°16.839 2°52.938 344.5 12 334 5.5
2005-10-18 06:56:37 51°16.853 2°52.927 344.1 11.9 335 7.2
2005-10-18 06:56:42 51°16.867 2°52.914 343.4 11.7 332 7.1
2005-10-18 06:56:47 51°16.881 2°52.902 341.8 11.6 332 7.2
2005-10-18 06:56:51 51°16.893 2°52.892 341.1 11.7 330 7.1
2005-10-18 06:56:57 51°16.909 2°52.875 339.7 11.7 329 7.3
2005-10-18 06:57:02 51°16.923 2°52.86 337.6 11.7 329 7.4
2005-10-18 06:57:07 51°16.937 2°52.845 336.8 12 327 7.6
2005-10-18 06:57:12 51°16.951 2°52.83 335.7 12.1 326 7.7
2005-10-18 06:57:17 51°16.965 2°52.815 335.7 12.2 327 7.6
2005-10-18 06:57:22 51°16.98 2°52.801 336.4 12.2 327 7.9
2005-10-18 06:57:27 51°16.994 2°52.788 337.2 12.3 330 7.9
2005-10-18 06:57:32 51°17.009 2°52.775 339.3 12.3 331 8
2005-10-18 06:57:37 51°17.024 2°52.762 340.8 12.3 332 8.1
2005-10-18 06:57:42 51°17.04 2°52.75 342.2 12.3 334 8.3
2005-10-18 06:57:47 51°17.055 2°52.738 343.3 12.4 333 8.4
2005-10-18 06:57:51 51°17.068 2°52.729 343.6 12.5 334 8.5
2005-10-18 06:57:57 51°17.087 2°52.714 344.4 12.5 333 8.4
2005-10-18 06:58:02 51°17.102 2°52.701 343.5 12.5 333 8.4
2005-10-18 06:58:07 51°17.117 2°52.689 342.7 12.5 332 8.1
2005-10-18 06:58:12 51°17.132 2°52.675 341.8 12.4 332 8
2005-10-18 06:58:17 51°17.147 2°52.662 340.9 12.3 331 7.9
2005-10-18 06:58:22 51°17.162 2°52.648 340.7 12.2 330 8.1
2005-10-18 06:58:27 51°17.177 2°52.635 340.2 12.2 330 8.3
2005-10-18 06:58:31 51°17.188 2°52.624 340.3 12.2 330 8
2005-10-18 06:58:37 51°17.207 2°52.609 341.3 12.3 332 8.1
2005-10-18 06:58:42 51°17.222 2°52.596 341.9 12.3 332 8.1
2005-10-18 06:58:47 51°17.237 2°52.584 342.8 12.3 334 8.2
2005-10-18 06:58:52 51°17.252 2°52.571 343.3 12.3 332 8.1
2005-10-18 06:58:57 51°17.268 2°52.559 343.1 12.3 333 8.2
2005-10-18 06:59:02 51°17.283 2°52.545 342.9 12.4 331 8.2
2005-10-18 06:59:07 51°17.298 2°52.532 342.1 12.4 331 8.4
2005-10-18 06:59:11 51°17.31 2°52.521 341.7 12.4 331 8.5
2005-10-18 06:59:17 51°17.328 2°52.505 341.4 12.5 331 8.4
2005-10-18 06:59:22 51°17.343 2°52.492 341 12.5 331 8.5
2005-10-18 06:59:27 51°17.358 2°52.478 341.3 12.5 331 8.3
2005-10-18 06:59:32 51°17.374 2°52.465 341.7 12.4 332 8.6
2005-10-18 06:59:37 51°17.389 2°52.451 342 12.5 332 8.5
2005-10-18 06:59:42 51°17.404 2°52.438 341.7 12.5 332 8.6
2005-10-18 06:59:47 51°17.419 2°52.424 341.6 12.5 331 8.6
2005-10-18 06:59:51 51°17.431 2°52.413 341.4 12.4 330 8.7
2005-10-18 06:59:57 51°17.449 2°52.397 341.3 12.4 331 8.7
2005-10-18 07:00:02 51°17.464 2°52.384 341.2 12.5 330 8.9
2005-10-18 07:00:07 51°17.479 2°52.37 341.5 12.4 330 8.7
2005-10-18 07:00:11 51°17.491 2°52.36 341.1 12.4 331 8.8
2005-10-18 07:00:17 51°17.509 2°52.344 341.6 12.4 331 9
2005-10-18 07:00:22 51°17.524 2°52.33 341.8 12.5 331 8.9
2005-10-18 07:00:27 51°17.539 2°52.317 341.6 12.4 331 8.9
2005-10-18 07:00:31 51°17.551 2°52.306 341.6 12.4 331 8.8
2005-10-18 07:00:37 51°17.569 2°52.29 341.6 12.4 331 8.7
2005-10-18 07:00:42 51°17.584 2°52.276 341.5 12.4 331 8.9
2005-10-18 07:00:47 51°17.599 2°52.262 341.3 12.5 330 8.8
2005-10-18 07:00:52 51°17.614 2°52.248 341.1 12.4 330 8.7
2005-10-18 07:00:57 51°17.629 2°52.235 340.9 12.4 330 8.9
2005-10-18 07:01:02 51°17.644 2°52.221 340.9 12.5 330 8.8
2005-10-18 07:01:07 51°17.659 2°52.207 340.9 12.4 330 8.7
2005-10-18 07:01:11 51°17.671 2°52.196 341 12.4 330 8.7
2005-10-18 07:01:17 51°17.689 2°52.18 341.2 12.4 330 8.7
2005-10-18 07:01:22 51°17.703 2°52.166 341.3 12.4 330 8.9
2005-10-18 07:01:27 51°17.718 2°52.153 341.1 12.4 330 8.9
2005-10-18 07:01:32 51°17.733 2°52.138 341.1 12.4 329 8.6
2005-10-18 07:01:37 51°17.748 2°52.125 340.7 12.4 330 8.8
2005-10-18 07:01:42 51°17.763 2°52.111 340.9 12.4 330 8.8
2005-10-18 07:01:47 51°17.778 2°52.098 341.3 12.4 331 8.9
2005-10-18 07:01:51 51°17.79 2°52.087 341.4 12.4 331 8.9
2005-10-18 07:01:57 51°17.808 2°52.071 341.9 12.4 330 8.8
2005-10-18 07:02:02 51°17.823 2°52.057 342 12.4 331 8.8
2005-10-18 07:02:07 51°17.838 2°52.044 341.9 12.4 331 8.9
2005-10-18 07:02:11 51°17.85 2°52.033 342 12.4 331 8.9
2005-10-18 07:02:17 51°17.868 2°52.017 341.9 12.4 331 8.9
2005-10-18 07:02:22 51°17.883 2°52.003 341.8 12.4 331 9
2005-10-18 07:02:27 51°17.898 2°51.99 341.8 12.5 330 8.8
2005-10-18 07:02:31 51°17.91 2°51.979 341.4 12.5 330 9
2005-10-18 07:02:37 51°17.928 2°51.962 341.2 12.4 329 8.9
2005-10-18 07:02:42 51°17.943 2°51.948 341.1 12.5 330 9
2005-10-18 07:02:47 51°17.958 2°51.934 340.9 12.5 330 8.9
2005-10-18 07:02:52 51°17.973 2°51.921 341.1 12.5 330 9
2005-10-18 07:02:57 51°17.988 2°51.907 341.3 12.5 330 9.1
2005-10-18 07:03:02 51°18.003 2°51.893 341.5 12.5 330 9.1
2005-10-18 07:03:07 51°18.018 2°51.879 341.7 12.5 331 9.1
2005-10-18 07:03:11 51°18.03 2°51.868 341.5 12.5 331 9
2005-10-18 07:03:17 51°18.048 2°51.851 341.1 12.5 330 9.2
2005-10-18 07:03:22 51°18.063 2°51.837 341.2 12.5 330 9.4
2005-10-18 07:03:27 51°18.078 2°51.824 341.4 12.6 330 9.3
2005-10-18 07:03:32 51°18.094 2°51.81 341.4 12.6 330 9.1
2005-10-18 07:03:37 51°18.109 2°51.796 341.8 12.5 331 9.4
2005-10-18 07:03:42 51°18.124 2°51.783 342.1 12.5 331 9.5
2005-10-18 07:03:47 51°18.139 2°51.769 342.5 12.5 331 9.4
2005-10-18 07:03:51 51°18.151 2°51.759 342.5 12.4 331 9.6
2005-10-18 07:03:57 51°18.169 2°51.742 342.4 12.5 330 9.5
2005-10-18 07:04:02 51°18.184 2°51.728 342.1 12.5 330 9.7
2005-10-18 07:04:07 51°18.199 2°51.714 341.8 12.6 330 9.8
2005-10-18 07:04:12 51°18.214 2°51.7 341.9 12.5 330 9.9
2005-10-18 07:04:17 51°18.229 2°51.687 341.7 12.5 330 10
2005-10-18 07:04:22 51°18.244 2°51.673 341.8 12.6 331 10.1
2005-10-18 07:04:27 51°18.26 2°51.659 342.1 12.6 330 10.2
2005-10-18 07:04:32 51°18.275 2°51.645 341.8 12.7 331 10.2
2005-10-18 07:04:37 51°18.29 2°51.631 341.9 12.7 330 10.4
2005-10-18 07:04:42 51°18.305 2°51.617 342.2 12.7 330 10.3
2005-10-18 07:04:47 51°18.32 2°51.603 341.5 12.7 330 10.6
2005-10-18 07:04:52 51°18.335 2°51.588 341.5 12.7 330 10.6
2005-10-18 07:04:57 51°18.35 2°51.574 341.6 12.6 330 10.6
2005-10-18 07:05:02 51°18.365 2°51.56 341.6 12.6 330 10.9
2005-10-18 07:05:07 51°18.38 2°51.546 341.7 12.7 331 11.1
2005-10-18 07:05:12 51°18.396 2°51.532 341.8 12.6 330 11
2005-10-18 07:05:17 51°18.411 2°51.518 341.8 12.6 330 11.2
2005-10-18 07:05:22 51°18.426 2°51.504 342.3 12.6 330 11.2
2005-10-18 07:05:27 51°18.441 2°51.49 341.8 12.6 329 11.4
2005-10-18 07:05:32 51°18.456 2°51.476 341.8 12.6 329 11.5
2005-10-18 07:05:37 51°18.471 2°51.462 342.3 12.6 331 11.6
2005-10-18 07:05:42 51°18.486 2°51.448 342.5 12.6 331 11.7
2005-10-18 07:05:47 51°18.501 2°51.434 342.2 12.6 331 11.9
2005-10-18 07:05:52 51°18.516 2°51.42 341.9 12.6 331 11.8
2005-10-18 07:05:57 51°18.531 2°51.406 341.6 12.7 330 12.1
2005-10-18 07:06:02 51°18.546 2°51.391 342.1 12.7 329 12
2005-10-18 07:06:07 51°18.561 2°51.377 341.8 12.6 329 12.3
2005-10-18 07:06:12 51°18.576 2°51.362 341.7 12.6 329 12.4
2005-10-18 07:06:17 51°18.591 2°51.348 341.3 12.6 330 12.4
2005-10-18 07:06:22 51°18.606 2°51.334 341.8 12.6 329 12.4
2005-10-18 07:06:27 51°18.622 2°51.32 341.8 12.6 330 12.5
2005-10-18 07:06:32 51°18.637 2°51.306 342.1 12.6 330 12.7
2005-10-18 07:06:37 51°18.652 2°51.292 342.6 12.7 330 12.7
2005-10-18 07:06:42 51°18.667 2°51.278 342.9 12.7 330 12.6
2005-10-18 07:06:47 51°18.682 2°51.264 342.5 12.7 330 12.8
2005-10-18 07:06:52 51°18.698 2°51.249 342.7 12.7 330 12.7
2005-10-18 07:06:57 51°18.713 2°51.236 342.8 12.6 332 12.9
2005-10-18 07:07:02 51°18.728 2°51.222 344 12.6 331 12.7
2005-10-18 07:07:07 51°18.744 2°51.21 344.2 12.6 332 12.9
2005-10-18 07:07:12 51°18.759 2°51.196 344.7 12.6 331 13
2005-10-18 07:07:17 51°18.774 2°51.183 344.8 12.6 332 13
2005-10-18 07:07:22 51°18.79 2°51.17 344.8 12.6 332 13.1
2005-10-18 07:07:27 51°18.805 2°51.157 345.1 12.6 333 13.2
2005-10-18 07:07:32 51°18.821 2°51.144 345.4 12.6 332 13.2
2005-10-18 07:07:37 51°18.836 2°51.131 346 12.6 332 13.2
2005-10-18 07:07:42 51°18.852 2°51.118 346 12.5 333 13.2
2005-10-18 07:07:47 51°18.867 2°51.106 346.2 12.5 333 13.4
2005-10-18 07:07:51 51°18.88 2°51.096 346.8 12.5 334 13.3
2005-10-18 07:07:57 51°18.898 2°51.081 347.2 12.5 333 13.3
2005-10-18 07:08:02 51°18.913 2°51.068 347 12.5 333 13.6
2005-10-18 07:08:07 51°18.929 2°51.055 346.6 12.4 333 13.2
2005-10-18 07:08:11 51°18.941 2°51.046 346.4 12.4 333 13.5
2005-10-18 07:08:17 51°18.96 2°51.03 346.5 12.4 333 13.5
2005-10-18 07:08:22 51°18.975 2°51.018 346.5 12.4 333 13.5
2005-10-18 07:08:27 51°18.99 2°51.006 346.8 12.4 333 13.6
2005-10-18 07:08:31 51°19.002 2°50.996 346.7 12.4 334 13.3
2005-10-18 07:08:37 51°19.021 2°50.981 346.7 12.5 334 13.6
2005-10-18 07:08:42 51°19.037 2°50.968 346.9 12.5 334 13.6
2005-10-18 07:08:47 51°19.052 2°50.956 346.8 12.5 333 13.6
2005-10-18 07:08:52 51°19.067 2°50.943 346.6 12.5 333 13.6
2005-10-18 07:08:57 51°19.083 2°50.93 346.6 12.4 333 13.6
2005-10-18 07:09:02 51°19.098 2°50.917 346.2 12.5 332 13.6
2005-10-18 07:09:07 51°19.114 2°50.906 346.1 12.5 334 13.5
2005-10-18 07:09:11 51°19.126 2°50.895 346.5 12.5 333 13.4
2005-10-18 07:09:17 51°19.145 2°50.881 346.7 12.5 332 13.4
2005-10-18 07:09:22 51°19.16 2°50.868 346.8 12.5 332 13.4
2005-10-18 07:09:27 51°19.175 2°50.856 346.9 12.4 333 13.5
2005-10-18 07:09:31 51°19.188 2°50.846 346.6 12.4 333 13.3
2005-10-18 07:09:37 51°19.206 2°50.83 346.3 12.6 332 13.3
2005-10-18 07:09:42 51°19.221 2°50.817 346.2 12.6 332 13.1
2005-10-18 07:09:47 51°19.236 2°50.805 346.2 12.4 333 13.2
2005-10-18 07:09:51 51°19.248 2°50.795 346.4 12.4 333 12.9
2005-10-18 07:09:57 51°19.267 2°50.78 346.4 12.5 333 13.1
2005-10-18 07:10:02 51°19.283 2°50.767 346.6 12.5 333 13.1
2005-10-18 07:10:07 51°19.298 2°50.755 346.5 12.5 334 13
2005-10-18 07:10:11 51°19.31 2°50.745 346.4 12.5 334 12.7
2005-10-18 07:10:17 51°19.329 2°50.73 346.8 12.5 334 12.6
2005-10-18 07:10:22 51°19.344 2°50.718 346.6 12.5 334 12.4
2005-10-18 07:10:27 51°19.36 2°50.705 346.4 12.5 333 12.3
2005-10-18 07:10:31 51°19.372 2°50.695 346.4 12.4 333 12
2005-10-18 07:10:37 51°19.39 2°50.681 346.2 12.6 333 11.7
2005-10-18 07:10:42 51°19.406 2°50.668 347 12.6 333 11.5
2005-10-18 07:10:47 51°19.421 2°50.656 346.5 12.3 333 11.3
2005-10-18 07:10:51 51°19.433 2°50.646 346.7 12.4 333 11.3
2005-10-18 07:10:57 51°19.452 2°50.631 346.7 12.4 333 11.1
2005-10-18 07:11:02 51°19.467 2°50.619 346.5 12.4 333 11.2
2005-10-18 07:11:07 51°19.483 2°50.607 346.6 12.5 334 11.3
2005-10-18 07:11:11 51°19.495 2°50.597 346.7 12.6 334 11.1
2005-10-18 07:11:17 51°19.514 2°50.583 347 12.6 334 11.1
2005-10-18 07:11:22 51°19.53 2°50.57 347.2 12.6 334 11
2005-10-18 07:11:27 51°19.546 2°50.558 346.9 12.5 334 10.9
2005-10-18 07:11:31 51°19.558 2°50.549 347.1 12.5 335 10.6
2005-10-18 07:11:37 51°19.577 2°50.534 346.8 12.6 333 10.7
2005-10-18 07:11:42 51°19.593 2°50.523 346.9 12.5 335 10.4
2005-10-18 07:11:47 51°19.608 2°50.51 346.8 12.7 333 10.3
2005-10-18 07:11:52 51°19.624 2°50.498 346.2 12.5 335 10.4
2005-10-18 07:11:57 51°19.64 2°50.486 346.7 12.6 333 10.3
2005-10-18 07:12:02 51°19.656 2°50.473 346.1 12.7 334 10.2
2005-10-18 07:12:07 51°19.671 2°50.461 345.7 12.7 334 10.3
2005-10-18 07:12:11 51°19.684 2°50.45 345.8 12.8 332 10.5
2005-10-18 07:12:17 51°19.703 2°50.436 345.4 12.7 332 11.3
2005-10-18 07:12:22 51°19.719 2°50.422 345.7 12.8 333 11.2
2005-10-18 07:12:27 51°19.735 2°50.411 346.6 12.8 335 11.6
2005-10-18 07:12:31 51°19.747 2°50.4 346.4 12.8 334 11.6
2005-10-18 07:12:37 51°19.766 2°50.386 346.8 12.7 335 12
2005-10-18 07:12:42 51°19.782 2°50.374 346.6 12.7 334 12
2005-10-18 07:12:47 51°19.798 2°50.361 346.5 12.7 334 12.2
2005-10-18 07:12:52 51°19.814 2°50.349 346.5 12.6 335 12.4
2005-10-18 07:12:57 51°19.83 2°50.337 346.3 12.7 333 12.5
2005-10-18 07:13:02 51°19.845 2°50.324 345.9 12.7 333 12.6
2005-10-18 07:13:07 51°19.861 2°50.312 345.6 12.6 334 12.7
2005-10-18 07:13:11 51°19.874 2°50.302 345.4 12.6 334 12.8
2005-10-18 07:13:17 51°19.893 2°50.287 346.2 12.6 334 12.7
2005-10-18 07:13:22 51°19.908 2°50.275 346.5 12.8 333 12.9
2005-10-18 07:13:27 51°19.924 2°50.262 346.2 12.7 334 12.6
2005-10-18 07:13:31 51°19.937 2°50.252 346.1 12.7 333 12.5
2005-10-18 07:13:37 51°19.956 2°50.237 345.9 12.7 333 13.1
2005-10-18 07:13:42 51°19.971 2°50.225 346 12.7 333 13.1
2005-10-18 07:13:47 51°19.987 2°50.212 346.4 12.7 334 13.2
2005-10-18 07:13:52 51°20.003 2°50.2 346.1 12.7 333 13.3
2005-10-18 07:13:57 51°20.019 2°50.188 346.2 12.7 334 13.9
2005-10-18 07:14:02 51°20.035 2°50.175 346.7 12.6 333 13.8
2005-10-18 07:14:07 51°20.05 2°50.163 346.6 12.7 334 14.2
2005-10-18 07:14:11 51°20.063 2°50.153 346.2 12.7 334 14.3
2005-10-18 07:14:17 51°20.082 2°50.138 346.7 12.7 335 14.8
2005-10-18 07:14:22 51°20.098 2°50.126 346.2 12.7 334 14.9
2005-10-18 07:14:27 51°20.113 2°50.113 346.5 12.8 333 15.2
2005-10-18 07:14:31 51°20.126 2°50.103 346.5 12.6 334 15.2
2005-10-18 07:14:37 51°20.145 2°50.088 346.2 12.7 334 15.7
2005-10-18 07:14:42 51°20.161 2°50.076 346.5 12.7 334 15.9
2005-10-18 07:14:47 51°20.176 2°50.063 346.7 12.7 333 16.1
2005-10-18 07:14:52 51°20.192 2°50.051 346.2 12.7 333 16.3
2005-10-18 07:14:57 51°20.208 2°50.038 346.2 12.7 333 16.5
2005-10-18 07:15:02 51°20.224 2°50.025 345.4 12.8 331 16.7
2005-10-18 07:15:07 51°20.24 2°50.012 346.1 12.8 334 17.1
2005-10-18 07:15:11 51°20.252 2°50.002 346.2 12.8 334 17.2
2005-10-18 07:15:17 51°20.271 2°49.987 346.2 12.7 334 17.4
2005-10-18 07:15:22 51°20.287 2°49.974 345.9 12.8 332 17.7
2005-10-18 07:15:27 51°20.302 2°49.961 345.7 12.8 333 17.9
2005-10-18 07:15:31 51°20.315 2°49.95 345.9 12.7 333 18
2005-10-18 07:15:37 51°20.333 2°49.934 345.5 12.9 331 18.4
2005-10-18 07:15:42 51°20.349 2°49.921 345.3 12.7 331 18.5
2005-10-18 07:15:47 51°20.364 2°49.908 345.5 12.7 332 19
2005-10-18 07:15:52 51°20.38 2°49.896 346.1 12.5 334 19.1
2005-10-18 07:15:57 51°20.396 2°49.883 346.4 12.6 334 19.3
2005-10-18 07:16:02 51°20.412 2°49.871 346.5 12.6 334 19.7
2005-10-18 07:16:07 51°20.427 2°49.857 346.3 12.6 332 19.8
2005-10-18 07:16:11 51°20.44 2°49.848 346.3 12.6 332 20.2
2005-10-18 07:16:17 51°20.459 2°49.833 346.2 12.7 333 20.3
2005-10-18 07:16:22 51°20.474 2°49.819 346.3 12.8 332 20.5
2005-10-18 07:16:27 51°20.49 2°49.806 346.1 12.8 333 20.7
2005-10-18 07:16:31 51°20.503 2°49.795 344.9 13 330 20.9
2005-10-18 07:16:37 51°20.522 2°49.779 345.8 12.8 332 21
2005-10-18 07:16:42 51°20.537 2°49.766 345.4 12.8 331 21.2
2005-10-18 07:16:47 51°20.553 2°49.753 345.9 12.9 332 21.2
2005-10-18 07:16:52 51°20.569 2°49.739 345.7 12.9 332 21.3
2005-10-18 07:16:57 51°20.584 2°49.726 345.7 12.7 332 21.4
2005-10-18 07:17:02 51°20.6 2°49.713 345.8 12.7 332 21.6
2005-10-18 07:17:07 51°20.616 2°49.699 345.4 12.8 332 21.8
2005-10-18 07:17:11 51°20.628 2°49.688 346.1 12.8 332 21.9
2005-10-18 07:17:17 51°20.647 2°49.672 345.4 12.8 331 21.5
2005-10-18 07:17:22 51°20.663 2°49.659 345.8 12.9 331 21.9
2005-10-18 07:17:27 51°20.678 2°49.646 346.5 12.7 334 21.6
2005-10-18 07:17:31 51°20.691 2°49.635 346.7 12.8 331 21.9
2005-10-18 07:17:37 51°20.709 2°49.619 346.2 12.9 332 21.9
2005-10-18 07:17:42 51°20.725 2°49.605 346.2 12.9 332 21.6
2005-10-18 07:17:47 51°20.741 2°49.592 345.8 12.9 331 21.9
2005-10-18 07:17:52 51°20.757 2°49.578 346 12.9 332 22
2005-10-18 07:17:57 51°20.773 2°49.566 346.5 12.9 333 21.9
2005-10-18 07:18:02 51°20.788 2°49.552 346.9 13 331 21.8
2005-10-18 07:18:07 51°20.805 2°49.538 346.7 12.8 333 21.6
2005-10-18 07:18:11 51°20.817 2°49.527 346.1 12.8 333 21.9
2005-10-18 07:18:17 51°20.836 2°49.512 346.7 12.9 333 21.8
2005-10-18 07:18:22 51°20.852 2°49.499 346.3 13 332 21.9
2005-10-18 07:18:27 51°20.867 2°49.484 346.9 12.8 331 21.7
2005-10-18 07:18:31 51°20.88 2°49.473 345.7 12.8 330 21.7
2005-10-18 07:18:37 51°20.899 2°49.457 345.7 12.8 332 21.7
2005-10-18 07:18:42 51°20.914 2°49.444 346.1 12.9 331 21.7
2005-10-18 07:18:47 51°20.931 2°49.431 346.7 12.8 333 21.7
2005-10-18 07:18:51 51°20.943 2°49.42 347.1 12.8 333 21.8
2005-10-18 07:18:57 51°20.962 2°49.404 347.2 12.7 333 21.6
2005-10-18 07:19:02 51°20.977 2°49.39 346.5 12.7 333 21.8
2005-10-18 07:19:07 51°20.993 2°49.377 346.6 12.9 331 21.7
2005-10-18 07:19:11 51°21.005 2°49.365 346.1 12.9 331 21.4
2005-10-18 07:19:17 51°21.024 2°49.349 345.6 13 330 21.4
2005-10-18 07:19:22 51°21.04 2°49.334 346 13 330 21.3
2005-10-18 07:19:27 51°21.056 2°49.321 345.4 13 330 21.1
2005-10-18 07:19:31 51°21.068 2°49.31 345.7 13 332 21.1
2005-10-18 07:19:37 51°21.087 2°49.293 346 13.1 331 21.2
2005-10-18 07:19:42 51°21.103 2°49.28 346.6 13.1 331 21.3
2005-10-18 07:19:47 51°21.12 2°49.266 346 13.2 330 21.1
2005-10-18 07:19:51 51°21.132 2°49.256 346.6 13 333 21.3
2005-10-18 07:19:57 51°21.151 2°49.24 346.8 13.1 332 21.1
2005-10-18 07:20:02 51°21.167 2°49.226 347.3 13.1 332 21
2005-10-18 07:20:07 51°21.183 2°49.213 346.4 13 330 21.1
2005-10-18 07:20:11 51°21.196 2°49.202 346.8 12.9 334 20.7
2005-10-18 07:20:17 51°21.215 2°49.187 346.7 12.9 332 20.6
2005-10-18 07:20:22 51°21.23 2°49.173 347.6 12.9 332 20.8
2005-10-18 07:20:27 51°21.246 2°49.159 346.6 13.1 331 20.7
2005-10-18 07:20:31 51°21.259 2°49.148 346.3 13 333 20.5
2005-10-18 07:20:37 51°21.278 2°49.132 346.2 13.1 331 20.7
2005-10-18 07:20:42 51°21.294 2°49.118 346.4 13 331 20.4
2005-10-18 07:20:47 51°21.309 2°49.104 346.3 13 331 20.4
2005-10-18 07:20:51 51°21.322 2°49.093 346.2 13 331 20.3
2005-10-18 07:20:57 51°21.341 2°49.077 346.4 13 332 20.5
2005-10-18 07:21:02 51°21.357 2°49.063 346.6 13 332 20.2
2005-10-18 07:21:07 51°21.373 2°49.05 346.9 13 332 20.3
2005-10-18 07:21:11 51°21.386 2°49.039 346.6 13 332 20.3
2005-10-18 07:21:17 51°21.405 2°49.023 346.9 12.9 332 20.3
2005-10-18 07:21:22 51°21.42 2°49.009 346.4 12.9 332 20.1
2005-10-18 07:21:27 51°21.436 2°48.995 346.4 12.9 331 20
2005-10-18 07:21:32 51°21.452 2°48.981 346.4 13 331 19.9
2005-10-18 07:21:37 51°21.468 2°48.968 346.7 13 332 20
2005-10-18 07:21:42 51°21.484 2°48.954 346 13 332 20.3
2005-10-18 07:21:47 51°21.5 2°48.939 346.2 13.1 331 20.5
2005-10-18 07:21:51 51°21.513 2°48.928 345.8 13.1 331 20.7
2005-10-18 07:21:57 51°21.532 2°48.912 346.2 13 332 20.9
2005-10-18 07:22:02 51°21.548 2°48.897 346.2 13 332 20.9
2005-10-18 07:22:07 51°21.564 2°48.884 345.7 13.1 331 21.3
2005-10-18 07:22:11 51°21.576 2°48.872 346.1 13.2 332 21.5
2005-10-18 07:22:17 51°21.595 2°48.856 345.9 13.1 331 21.7
2005-10-18 07:22:22 51°21.611 2°48.842 346.4 13.1 331 21.9
2005-10-18 07:22:27 51°21.627 2°48.827 345.8 13 331 22
2005-10-18 07:22:31 51°21.639 2°48.816 345.6 13 331 22.1
2005-10-18 07:22:37 51°21.659 2°48.8 345.7 13 332 22.1
2005-10-18 07:22:42 51°21.674 2°48.786 346.1 13 331 22.1
2005-10-18 07:22:47 51°21.69 2°48.772 346 13.1 331 22.2
2005-10-18 07:22:51 51°21.703 2°48.76 345.9 13.1 331 22.2
2005-10-18 07:22:57 51°21.722 2°48.744 345.5 13 332 22.2
2005-10-18 07:23:02 51°21.738 2°48.73 346 13.1 332 22.4
2005-10-18 07:23:07 51°21.754 2°48.716 346.3 13.1 332 22.3
2005-10-18 07:23:11 51°21.767 2°48.705 346.2 13.1 332 22.4
2005-10-18 07:23:17 51°21.786 2°48.688 345.7 13.1 332 22.2
2005-10-18 07:23:22 51°21.802 2°48.674 346.6 13.1 332 22.2
2005-10-18 07:23:27 51°21.818 2°48.661 346.6 13.2 332 22.4
2005-10-18 07:23:32 51°21.834 2°48.647 346.9 13 333 22.5
2005-10-18 07:23:37 51°21.85 2°48.634 345.9 13.1 331 22.5
2005-10-18 07:23:42 51°21.865 2°48.62 347.1 13.1 331 22.6
2005-10-18 07:23:47 51°21.881 2°48.607 346.4 12.9 331 22.6
2005-10-18 07:23:51 51°21.894 2°48.597 347 12.9 333 22.6
2005-10-18 07:23:57 51°21.913 2°48.58 346.3 13 332 22.3
2005-10-18 07:24:02 51°21.929 2°48.567 346.6 13 332 22.5
2005-10-18 07:24:07 51°21.944 2°48.553 347.4 12.9 333 22.2
2005-10-18 07:24:11 51°21.957 2°48.542 345.4 12.9 331 22.6
2005-10-18 07:24:17 51°21.976 2°48.525 345 12.9 332 22.6
2005-10-18 07:24:22 51°21.991 2°48.51 344 12.9 332 22.7
2005-10-18 07:24:27 51°22.006 2°48.494 343.5 13 330 22.2
2005-10-18 07:24:31 51°22.018 2°48.482 341.8 13.2 326 22.4
2005-10-18 07:24:37 51°22.037 2°48.463 341.7 12.9 328 22.7
2005-10-18 07:24:42 51°22.052 2°48.447 341.6 13 328 22.5
2005-10-18 07:24:47 51°22.067 2°48.431 341.2 13 327 22.7
2005-10-18 07:24:51 51°22.079 2°48.419 341.8 13.1 329 22.4
2005-10-18 07:24:57 51°22.098 2°48.401 341.8 13 329 22.5
2005-10-18 07:25:02 51°22.113 2°48.386 341.8 13.2 328 22.8
2005-10-18 07:25:07 51°22.129 2°48.372 341.8 13.1 328 22.9
2005-10-18 07:25:11 51°22.142 2°48.361 343.3 13.1 328 22.8
2005-10-18 07:25:17 51°22.16 2°48.343 342.4 12.9 329 22.6
2005-10-18 07:25:22 51°22.176 2°48.33 342.5 12.9 329 22.9
2005-10-18 07:25:27 51°22.191 2°48.316 342.6 12.9 333 22.9
2005-10-18 07:25:32 51°22.206 2°48.302 342.2 12.8 331 22.8
2005-10-18 07:25:37 51°22.222 2°48.286 341.2 13 327 22
2005-10-18 07:25:42 51°22.237 2°48.27 340.4 13 327 21.8
2005-10-18 07:25:47 51°22.252 2°48.255 338.9 12.9 327 21
2005-10-18 07:25:51 51°22.263 2°48.242 338.2 12.9 327 20.6
2005-10-18 07:25:57 51°22.281 2°48.222 338.2 12.8 324 19.9
2005-10-18 07:26:02 51°22.295 2°48.206 336.3 12.8 325 19.9
2005-10-18 07:26:07 51°22.31 2°48.189 337.5 12.7 325 19.8
2005-10-18 07:26:11 51°22.321 2°48.176 336.1 12.7 325 19.6
2005-10-18 07:26:17 51°22.338 2°48.157 337.7 12.7 327 19.7
2005-10-18 07:26:22 51°22.353 2°48.141 336.4 12.7 327 19.3
2005-10-18 07:26:27 51°22.367 2°48.124 336.1 12.5 325 18.3
2005-10-18 07:26:32 51°22.38 2°48.107 335.1 12.7 321 17.6
2005-10-18 07:26:37 51°22.394 2°48.09 334.4 12.6 324 16.2
2005-10-18 07:26:42 51°22.407 2°48.071 334.5 12.6 324 14
2005-10-18 07:26:47 51°22.421 2°48.055 333.9 12.7 319 11.6
2005-10-18 07:26:51 51°22.432 2°48.041 335.4 12.7 319 13
2005-10-18 07:26:57 51°22.448 2°48.021 334.8 12.3 322 14.5
2005-10-18 07:27:02 51°22.462 2°48.006 334.7 12.4 324 15.9
2005-10-18 07:27:07 51°22.476 2°47.989 337.2 12.2 325 16.4
2005-10-18 07:27:11 51°22.487 2°47.976 337 12.2 325 17.1
2005-10-18 07:27:17 51°22.504 2°47.958 338.4 12.3 327 17.2
2005-10-18 07:27:22 51°22.519 2°47.943 337.3 12.3 327 17.5
2005-10-18 07:27:27 51°22.533 2°47.927 338.2 12.5 326 17.4
2005-10-18 07:27:32 51°22.548 2°47.912 339.1 12.6 328 17.7
2005-10-18 07:27:37 51°22.562 2°47.896 338.9 12.6 328 17.7
2005-10-18 07:27:42 51°22.577 2°47.88 338.3 12.6 328 16.2
2005-10-18 07:27:47 51°22.591 2°47.865 338.9 12.6 325 17.4
2005-10-18 07:27:51 51°22.602 2°47.852 338.9 12.4 324 17.3
2005-10-18 07:27:57 51°22.619 2°47.832 336.8 12.6 323 17.2
2005-10-18 07:28:02 51°22.633 2°47.816 337.5 12.6 323 16.7
2005-10-18 07:28:07 51°22.647 2°47.798 337 12.6 323 16.9
2005-10-18 07:28:11 51°22.658 2°47.786 336 12.4 325 16.9
2005-10-18 07:28:17 51°22.675 2°47.765 337.2 12.4 326 17.4
2005-10-18 07:28:22 51°22.689 2°47.749 335.4 12.4 326 17.5
2005-10-18 07:28:27 51°22.702 2°47.732 336.4 12.4 324 17.6
2005-10-18 07:28:31 51°22.714 2°47.719 336.7 12.6 323 18.1
2005-10-18 07:28:37 51°22.731 2°47.699 335.7 12.6 323 18.2
2005-10-18 07:28:42 51°22.745 2°47.683 337.5 12.6 323 16.6
2005-10-18 07:28:47 51°22.758 2°47.665 337.2 12.5 322 17.5
2005-10-18 07:28:51 51°22.769 2°47.652 335.4 12.5 322 18.1
2005-10-18 07:28:57 51°22.786 2°47.631 334.2 12.5 321 18.5
2005-10-18 07:29:02 51°22.8 2°47.614 336.2 12.5 321 18.9
2005-10-18 07:29:07 51°22.814 2°47.598 335.3 12.6 323 19
2005-10-18 07:29:11 51°22.825 2°47.585 336.5 12.6 323 19.1
2005-10-18 07:29:17 51°22.842 2°47.563 336 12.6 321 19.2
2005-10-18 07:29:22 51°22.856 2°47.548 336.1 12.6 325 19.3
2005-10-18 07:29:27 51°22.87 2°47.53 336.3 12.6 325 18.2
2005-10-18 07:29:32 51°22.884 2°47.513 336.5 12.7 324 16.7
2005-10-18 07:29:37 51°22.898 2°47.496 336 12.6 323 16.1
2005-10-18 07:29:42 51°22.911 2°47.479 337.2 12.6 323 16.1
2005-10-18 07:29:47 51°22.925 2°47.461 336 12.8 321 15.6
2005-10-18 07:29:51 51°22.936 2°47.448 335.4 12.5 324 16.9
2005-10-18 07:29:57 51°22.953 2°47.427 335.8 12.7 323 17.3
2005-10-18 07:30:02 51°22.967 2°47.41 337.4 12.7 323 18.2
2005-10-18 07:30:07 51°22.982 2°47.394 336.7 12.8 323 18.7
2005-10-18 07:30:11 51°22.993 2°47.381 338.1 12.7 324 19.1
2005-10-18 07:30:17 51°23.01 2°47.362 337.9 12.8 323 19.6
2005-10-18 07:30:22 51°23.024 2°47.344 338.5 12.8 323 20
2005-10-18 07:30:27 51°23.039 2°47.329 336.5 12.9 322 20.1
2005-10-18 07:30:31 51°23.05 2°47.316 338.3 12.7 325 20.3
2005-10-18 07:30:37 51°23.067 2°47.296 338.4 12.7 324 20.6
2005-10-18 07:30:42 51°23.082 2°47.28 337.9 12.7 324 20.6
2005-10-18 07:30:47 51°23.096 2°47.263 337.6 12.7 326 20.6
2005-10-18 07:30:51 51°23.108 2°47.25 337.4 12.7 324 20.6
2005-10-18 07:30:57 51°23.125 2°47.23 336.6 12.8 324 21
2005-10-18 07:31:02 51°23.139 2°47.213 337.2 12.8 325 20.8
2005-10-18 07:31:07 51°23.154 2°47.198 337.7 12.7 326 20.4
2005-10-18 07:31:11 51°23.165 2°47.185 338.2 12.7 327 20
2005-10-18 07:31:17 51°23.183 2°47.166 338.6 12.6 326 20.1
2005-10-18 07:31:22 51°23.197 2°47.149 337.9 12.6 323 20.1
2005-10-18 07:31:27 51°23.211 2°47.132 336 12.6 323 20.3
2005-10-18 07:31:31 51°23.222 2°47.118 335.9 12.6 323 20.8
2005-10-18 07:31:37 51°23.239 2°47.098 335.4 12.7 322 20.7
2005-10-18 07:31:42 51°23.253 2°47.081 335.9 12.7 322 20.9
2005-10-18 07:31:47 51°23.267 2°47.063 335.3 12.7 323 21
2005-10-18 07:31:52 51°23.281 2°47.046 334.9 12.7 323 21.5
2005-10-18 07:31:57 51°23.295 2°47.029 335.7 12.7 323 21.6
2005-10-18 07:32:02 51°23.31 2°47.013 336.4 12.7 324 22
2005-10-18 07:32:07 51°23.324 2°46.996 336.8 12.8 323 22.3
2005-10-18 07:32:11 51°23.335 2°46.984 337 12.6 325 21.5
2005-10-18 07:32:17 51°23.352 2°46.964 337.7 12.7 324 20.6
2005-10-18 07:32:22 51°23.366 2°46.947 337.4 12.7 324 19.3
2005-10-18 07:32:27 51°23.381 2°46.93 337.1 13 323 20.2
2005-10-18 07:32:31 51°23.393 2°46.918 338.3 12.7 326 20.7
2005-10-18 07:32:37 51°23.409 2°46.896 337.8 12.7 325 21
2005-10-18 07:32:42 51°23.424 2°46.881 336.7 12.7 325 21.7
2005-10-18 07:32:47 51°23.439 2°46.864 338.8 12.8 327 21.8
2005-10-18 07:32:51 51°23.45 2°46.85 337.8 12.8 321 22.6
2005-10-18 07:32:57 51°23.467 2°46.83 336.8 12.7 322 23.1
2005-10-18 07:33:02 51°23.482 2°46.814 337 12.7 322 23.5
2005-10-18 07:33:07 51°23.496 2°46.798 338.2 12.8 325 23.9
2005-10-18 07:33:11 51°23.508 2°46.784 338.5 12.8 324 24.2
2005-10-18 07:33:17 51°23.525 2°46.765 336.9 12.9 323 24.5
2005-10-18 07:33:22 51°23.54 2°46.748 338.3 12.7 327 24.6
2005-10-18 07:33:27 51°23.553 2°46.732 336.9 12.7 322 24.9
2005-10-18 07:33:31 51°23.565 2°46.719 337.5 12.5 326 24.9
2005-10-18 07:33:37 51°23.583 2°46.703 339.4 12.5 326 25.1
2005-10-18 07:33:43 51°23.6 2°46.685 342.9 12.2 331 25.4
2005-10-18 07:33:47 51°23.612 2°46.675 341.6 12.5 325 25.3
2005-10-18 07:33:51 51°23.624 2°46.666 343.7 12.5 325 25.2
2005-10-18 07:33:57 51°23.642 2°46.65 345.4 12.3 331 25.4
2005-10-18 07:34:02 51°23.657 2°46.639 345.7 12.1 336 25.2
2005-10-18 07:34:07 51°23.673 2°46.628 348.4 12.3 336 25.3
2005-10-18 07:34:11 51°23.686 2°46.621 350.3 12.3 336 25.3
2005-10-18 07:34:17 51°23.705 2°46.609 352.2 12.4 339 25.7
2005-10-18 07:34:22 51°23.721 2°46.601 354 12.2 343 25.8
2005-10-18 07:34:27 51°23.737 2°46.594 355.1 12.2 344 26.2
2005-10-18 07:34:31 51°23.75 2°46.588 357.3 12 345 26.4
2005-10-18 07:34:37 51°23.769 2°46.582 359.3 11.8 348 26.5
2005-10-18 07:34:42 51°23.786 2°46.577 359.2 11.9 348 26.7
2005-10-18 07:34:47 51°23.801 2°46.572 2.3 11.9 350 26.8
2005-10-18 07:34:51 51°23.814 2°46.57 5.2 11.7 352 26.2
2005-10-18 07:34:57 51°23.834 2°46.566 5 11.7 352 25.3
2005-10-18 07:35:02 51°23.85 2°46.566 6.6 11.5 358 26.4
2005-10-18 07:35:07 51°23.866 2°46.564 9.4 11.6 356 26.6
2005-10-18 07:35:11 51°23.878 2°46.565 11.3 11.5 -999 26.2
2005-10-18 07:35:17 51°23.897 2°46.566 13.6 11.3 3 26.8
2005-10-18 07:35:22 51°23.913 2°46.569 15.9 11.3 4 26.9
2005-10-18 07:35:27 51°23.928 2°46.571 17.3 11.2 6 27.2
2005-10-18 07:35:32 51°23.943 2°46.577 18.2 11.2 6 26.7
2005-10-18 07:35:37 51°23.959 2°46.581 21.5 11.2 10 26.7
2005-10-18 07:35:42 51°23.973 2°46.586 23.2 11.1 13 26.7
2005-10-18 07:35:47 51°23.988 2°46.594 24.7 10.9 16 27.3
2005-10-18 07:35:51 51°24 2°46.599 27.1 10.9 16 27.5
2005-10-18 07:35:57 51°24.017 2°46.61 29.7 11 21 27
2005-10-18 07:36:02 51°24.03 2°46.62 30.5 10.8 23 27.9
2005-10-18 07:36:07 51°24.044 2°46.629 32.7 10.8 23 28.2
2005-10-18 07:36:11 51°24.055 2°46.638 33.5 10.8 23 28.4
2005-10-18 07:36:17 51°24.072 2°46.649 34.8 11 24 28.6
2005-10-18 07:36:22 51°24.085 2°46.661 33.6 10.6 26 28.3
2005-10-18 07:36:27 51°24.099 2°46.671 37 10.7 28 27.8
2005-10-18 07:36:31 51°24.109 2°46.681 36.1 10.8 26 27.2
2005-10-18 07:36:37 51°24.125 2°46.694 37.3 10.7 28 28.5
2005-10-18 07:36:42 51°24.138 2°46.705 37.7 10.8 27 28.3
2005-10-18 07:36:47 51°24.151 2°46.717 37.4 10.8 30 27.7
2005-10-18 07:36:51 51°24.162 2°46.727 37.7 10.8 30 28
2005-10-18 07:36:57 51°24.177 2°46.742 38.9 10.8 31 26.8
2005-10-18 07:37:02 51°24.189 2°46.756 39.9 10.8 34 27.1
2005-10-18 07:37:07 51°24.201 2°46.769 41.5 10.8 34 27.3
2005-10-18 07:37:11 51°24.211 2°46.782 43.4 10.7 38 26.9
2005-10-18 07:37:17 51°24.225 2°46.799 45.4 10.7 38 25.3
2005-10-18 07:37:22 51°24.236 2°46.815 45.4 10.7 38 27
2005-10-18 07:37:27 51°24.248 2°46.83 46.4 10.7 40 27.8
2005-10-18 07:37:31 51°24.257 2°46.842 46.4 10.7 40 27.5
2005-10-18 07:37:37 51°24.27 2°46.862 47.8 10.9 42 27.4
2005-10-18 07:37:42 51°24.281 2°46.878 48.6 10.8 42 26.9
2005-10-18 07:37:47 51°24.292 2°46.894 49 10.8 43 26.6
2005-10-18 07:37:51 51°24.301 2°46.906 49 10.7 43 27.2
2005-10-18 07:37:57 51°24.314 2°46.925 49.1 10.7 42 28
2005-10-18 07:38:02 51°24.326 2°46.941 48.8 10.6 42 28.7
2005-10-18 07:38:07 51°24.337 2°46.956 48.7 10.6 41 29.2
2005-10-18 07:38:11 51°24.346 2°46.968 48.6 10.7 40 29.5
2005-10-18 07:38:17 51°24.36 2°46.987 47.7 10.7 40 29.2
2005-10-18 07:38:22 51°24.371 2°47.001 47.8 10.7 40 28.8
2005-10-18 07:38:27 51°24.382 2°47.018 47.9 10.8 41 28.1
2005-10-18 07:38:31 51°24.391 2°47.031 48.8 10.7 43 29.2
2005-10-18 07:38:37 51°24.404 2°47.05 50 10.7 42 29.5
2005-10-18 07:38:42 51°24.415 2°47.066 51 10.7 45 29.8
2005-10-18 07:38:47 51°24.425 2°47.084 51.5 10.8 45 29.6
2005-10-18 07:38:51 51°24.433 2°47.098 52 10.8 45 29.3
2005-10-18 07:38:57 51°24.445 2°47.119 54.4 10.5 49 28.5
2005-10-18 07:39:02 51°24.454 2°47.137 55.1 10.8 50 28.5
2005-10-18 07:39:07 51°24.463 2°47.156 56.6 10.7 52 28.3
2005-10-18 07:39:11 51°24.47 2°47.171 57.6 10.6 53 28.4
2005-10-18 07:39:17 51°24.481 2°47.193 58.2 10.5 53 29
2005-10-18 07:39:22 51°24.49 2°47.212 58.4 10.7 53 29.8
2005-10-18 07:39:27 51°24.499 2°47.231 58.3 10.6 53 30.2
2005-10-18 07:39:31 51°24.506 2°47.246 58 10.6 54 30.3
2005-10-18 07:39:37 51°24.517 2°47.268 58.4 10.6 52 30
2005-10-18 07:39:42 51°24.525 2°47.287 58.2 10.6 53 29.9
2005-10-18 07:39:47 51°24.534 2°47.305 58.2 10.6 52 29.4
2005-10-18 07:39:51 51°24.542 2°47.32 58.2 10.6 52 29.8
2005-10-18 07:39:57 51°24.552 2°47.343 58.1 10.6 52 29.6
2005-10-18 07:40:02 51°24.561 2°47.362 58.1 10.7 54 29.8
2005-10-18 07:40:07 51°24.57 2°47.381 58.5 10.6 53 30
2005-10-18 07:40:11 51°24.577 2°47.396 59 10.6 53 30.1
2005-10-18 07:40:17 51°24.587 2°47.418 59.3 10.6 53 30
2005-10-18 07:40:22 51°24.596 2°47.438 59.2 10.7 55 29.7
2005-10-18 07:40:27 51°24.604 2°47.457 60.1 10.7 55 29.7
2005-10-18 07:40:31 51°24.611 2°47.472 60.4 10.6 56 29.6
2005-10-18 07:40:37 51°24.621 2°47.496 60.6 10.5 56 29.7
2005-10-18 07:40:42 51°24.629 2°47.515 60.7 10.6 56 29.2
2005-10-18 07:40:47 51°24.637 2°47.534 60.2 10.5 54 29.4
2005-10-18 07:40:51 51°24.644 2°47.549 60.2 10.5 54 29.1
2005-10-18 07:40:57 51°24.654 2°47.571 59.6 10.5 53 29
2005-10-18 07:41:02 51°24.663 2°47.59 59.8 10.4 54 28.9
2005-10-18 07:41:07 51°24.671 2°47.609 59.3 10.5 54 28.5
2005-10-18 07:41:11 51°24.678 2°47.624 59.8 10.4 55 28.9
2005-10-18 07:41:17 51°24.688 2°47.646 59.9 10.4 54 29
2005-10-18 07:41:22 51°24.697 2°47.665 59.5 10.4 54 29.1
2005-10-18 07:41:27 51°24.705 2°47.684 59.5 10.5 53 28.9
2005-10-18 07:41:31 51°24.712 2°47.699 59.3 10.5 53 28.9
2005-10-18 07:41:37 51°24.721 2°47.723 61.3 10.6 57 28.6
2005-10-18 07:41:42 51°24.729 2°47.743 61.7 10.6 58 28.6
2005-10-18 07:41:47 51°24.736 2°47.763 63.3 10.6 58 28.7
2005-10-18 07:41:51 51°24.742 2°47.779 64.2 10.6 58 28.5
2005-10-18 07:41:57 51°24.75 2°47.804 64.4 10.5 61 28.7
2005-10-18 07:42:02 51°24.758 2°47.824 64.5 10.6 60 28.4
2005-10-18 07:42:07 51°24.765 2°47.844 64.7 10.5 59 28
2005-10-18 07:42:12 51°24.772 2°47.864 64.2 10.5 61 28.4
2005-10-18 07:42:17 51°24.779 2°47.885 64.2 10.4 61 28.1
2005-10-18 07:42:22 51°24.786 2°47.904 64.7 10.4 61 28
2005-10-18 07:42:27 51°24.794 2°47.925 64.5 10.5 60 27.8
2005-10-18 07:42:31 51°24.8 2°47.94 64.3 10.3 60 27.5
2005-10-18 07:42:37 51°24.808 2°47.964 64.1 10.4 59 27.3
2005-10-18 07:42:42 51°24.816 2°47.985 64 10.6 59 26.4
2005-10-18 07:42:47 51°24.823 2°48.005 64.4 10.6 60 26.5
2005-10-18 07:42:52 51°24.83 2°48.025 64.7 10.5 60 27
2005-10-18 07:42:57 51°24.837 2°48.045 64.6 10.5 61 27
2005-10-18 07:43:02 51°24.844 2°48.066 64.5 10.5 61 27.1
2005-10-18 07:43:07 51°24.851 2°48.087 65.9 10.6 63 27.3
2005-10-18 07:43:11 51°24.856 2°48.103 66.7 10.6 63 27.4
2005-10-18 07:43:17 51°24.864 2°48.129 67.1 10.4 64 27.5
2005-10-18 07:43:22 51°24.87 2°48.15 67.7 10.6 66 27.5
2005-10-18 07:43:27 51°24.876 2°48.171 68.4 10.6 66 27.4
2005-10-18 07:43:31 51°24.881 2°48.188 67.8 10.6 66 27.4
2005-10-18 07:43:37 51°24.889 2°48.213 68.2 10.6 64 27
2005-10-18 07:43:42 51°24.895 2°48.234 67.7 10.5 65 27
2005-10-18 07:43:47 51°24.901 2°48.255 68.2 10.4 65 26.5
2005-10-18 07:43:51 51°24.906 2°48.272 68.3 10.4 64 26.4
2005-10-18 07:43:57 51°24.914 2°48.297 67.7 10.5 64 26.3
2005-10-18 07:44:02 51°24.92 2°48.318 67.8 10.6 65 25.9
2005-10-18 07:44:07 51°24.926 2°48.339 68.1 10.5 64 26.1
2005-10-18 07:44:11 51°24.931 2°48.356 67.6 10.5 64 26.4
2005-10-18 07:44:17 51°24.939 2°48.381 67.6 10.5 65 26.3
2005-10-18 07:44:22 51°24.945 2°48.402 68 10.5 64 26.1
2005-10-18 07:44:27 51°24.951 2°48.423 68.1 10.6 65 25.4
2005-10-18 07:44:31 51°24.957 2°48.44 67.7 10.6 63 24.8
2005-10-18 07:44:37 51°24.964 2°48.465 67.8 10.4 65 24.2
2005-10-18 07:44:42 51°24.97 2°48.486 68.2 10.5 64 25.5
2005-10-18 07:44:47 51°24.977 2°48.507 67.9 10.5 64 26.3
2005-10-18 07:44:51 51°24.982 2°48.524 67.9 10.5 64 25.8
2005-10-18 07:44:57 51°24.989 2°48.549 67.6 10.5 64 25.7
2005-10-18 07:45:02 51°24.996 2°48.57 67.7 10.5 64 25.1
2005-10-18 07:45:07 51°25.002 2°48.591 67.4 10.4 64 24.6
2005-10-18 07:45:11 51°25.007 2°48.607 67.7 10.4 64 23.7
2005-10-18 07:45:17 51°25.014 2°48.632 67.8 10.4 65 22.7
2005-10-18 07:45:22 51°25.021 2°48.653 67.8 10.4 65 25
2005-10-18 07:45:27 51°25.027 2°48.673 68 10.4 65 25.1
2005-10-18 07:45:31 51°25.032 2°48.69 67.7 10.3 63 24.9
2005-10-18 07:45:37 51°25.039 2°48.715 67.6 10.4 64 24.8
2005-10-18 07:45:42 51°25.046 2°48.736 67.5 10.4 64 24.6
2005-10-18 07:45:47 51°25.052 2°48.756 67.5 10.4 64 24.5
2005-10-18 07:45:51 51°25.057 2°48.773 67.6 10.4 64 24.3
2005-10-18 07:45:57 51°25.065 2°48.798 67.6 10.5 64 24
2005-10-18 07:46:02 51°25.071 2°48.819 67.7 10.5 65 24.1
2005-10-18 07:46:07 51°25.078 2°48.841 66.9 10.5 63 23.7
2005-10-18 07:46:11 51°25.083 2°48.858 67 10.4 64 23.3
2005-10-18 07:46:17 51°25.091 2°48.882 67.5 10.4 64 23.2
2005-10-18 07:46:22 51°25.097 2°48.903 67.3 10.4 64 23
2005-10-18 07:46:27 51°25.104 2°48.923 67.2 10.4 63 22.9
2005-10-18 07:46:31 51°25.108 2°48.939 67.5 10.1 65 22.6
2005-10-18 07:46:37 51°25.116 2°48.964 68.1 10.2 66 22.6
2005-10-18 07:46:42 51°25.122 2°48.985 68 10.2 66 22.5
2005-10-18 07:46:47 51°25.128 2°49.005 68 10.4 66 22.5
2005-10-18 07:46:51 51°25.133 2°49.022 67.8 10.3 65 22.4
2005-10-18 07:46:57 51°25.14 2°49.047 68 10.3 64 22.3
2005-10-18 07:47:02 51°25.146 2°49.068 67.7 10.3 64 22.3
2005-10-18 07:47:07 51°25.153 2°49.089 67.6 10.5 65 22.2
2005-10-18 07:47:11 51°25.158 2°49.105 68.1 10.4 64 22.4
2005-10-18 07:47:17 51°25.165 2°49.13 67.6 10.2 64 22.1
2005-10-18 07:47:22 51°25.172 2°49.15 67.6 10.4 62 21.7
2005-10-18 07:47:27 51°25.178 2°49.171 67.2 10.4 64 20.9
2005-10-18 07:47:31 51°25.183 2°49.187 67.8 10.3 64 20.8
2005-10-18 07:47:37 51°25.19 2°49.212 67.6 10.3 64 21.1
2005-10-18 07:47:43 51°25.198 2°49.237 67.5 10.3 65 21.2
2005-10-18 07:47:47 51°25.202 2°49.254 68.2 10.3 65 21.7
2005-10-18 07:47:51 51°25.207 2°49.271 68.8 10.3 66 21.7
2005-10-18 07:47:57 51°25.214 2°49.296 68.9 10.4 66 21.8
2005-10-18 07:48:02 51°25.22 2°49.317 69.7 10.5 67 22
2005-10-18 07:48:07 51°25.225 2°49.339 69.3 10.5 66 21.9
2005-10-18 07:48:11 51°25.23 2°49.356 69.5 10.4 67 21.8
2005-10-18 07:48:17 51°25.237 2°49.382 69.6 10.5 66 21.8
2005-10-18 07:48:22 51°25.243 2°49.403 69.5 10.5 66 21.8
2005-10-18 07:48:27 51°25.248 2°49.425 69.6 10.6 67 21.9
2005-10-18 07:48:31 51°25.253 2°49.442 69.6 10.5 66 21.9
2005-10-18 07:48:37 51°25.26 2°49.467 69.6 10.4 67 21.9
2005-10-18 07:48:42 51°25.266 2°49.489 69.8 10.4 67 21.8
2005-10-18 07:48:47 51°25.272 2°49.51 69.6 10.5 66 21.6
2005-10-18 07:48:51 51°25.276 2°49.527 69.6 10.2 68 21.7
2005-10-18 07:48:57 51°25.282 2°49.552 69.6 10.2 68 21.5
2005-10-18 07:49:02 51°25.287 2°49.572 70 10.2 68 21.8
2005-10-18 07:49:07 51°25.293 2°49.593 70.1 10.1 69 21.8
2005-10-18 07:49:11 51°25.297 2°49.61 69.7 10.2 67 21.8
2005-10-18 07:49:17 51°25.304 2°49.635 69.2 10.2 67 21.9
2005-10-18 07:49:22 51°25.31 2°49.656 68.8 10.2 67 21.7
2005-10-18 07:49:27 51°25.316 2°49.677 69 10.4 66 21.8
2005-10-18 07:49:31 51°25.321 2°49.694 68.5 10.4 66 21.9
2005-10-18 07:49:37 51°25.327 2°49.72 69 10.5 67 21.8
2005-10-18 07:49:42 51°25.332 2°49.742 70 10.5 69 21.8
2005-10-18 07:49:47 51°25.338 2°49.763 70.9 10.5 69 22
2005-10-18 07:49:51 51°25.342 2°49.781 71 10.5 69 22.1
2005-10-18 07:49:57 51°25.348 2°49.806 71.2 10.5 71 22.1
2005-10-18 07:50:02 51°25.352 2°49.828 71.9 10.5 71 22
2005-10-18 07:50:07 51°25.357 2°49.85 72.6 10.4 71 22.1
2005-10-18 07:50:11 51°25.361 2°49.867 72.5 10.4 71 22
2005-10-18 07:50:17 51°25.367 2°49.894 72.6 10.4 71 22.1
2005-10-18 07:50:22 51°25.371 2°49.915 72.4 10.3 71 22.1
2005-10-18 07:50:27 51°25.376 2°49.937 72.8 10.3 71 21.9
2005-10-18 07:50:31 51°25.38 2°49.955 72.7 10.3 71 22.1
2005-10-18 07:50:37 51°25.386 2°49.98 72.5 10.4 71 22.2
2005-10-18 07:50:42 51°25.391 2°50.002 71.9 10.4 71 22.2
2005-10-18 07:50:47 51°25.395 2°50.024 72.1 10.4 70 22.2
2005-10-18 07:50:52 51°25.4 2°50.046 73.1 10.6 71 22.1
2005-10-18 07:50:57 51°25.404 2°50.069 72.9 10.4 71 21.9
2005-10-18 07:51:02 51°25.41 2°50.09 73.2 10.4 71 22.1
2005-10-18 07:51:07 51°25.414 2°50.112 72.5 10.4 70 22.3
2005-10-18 07:51:11 51°25.418 2°50.13 72.3 10.4 70 22.1
2005-10-18 07:51:17 51°25.424 2°50.156 72.3 10.5 71 22.4
2005-10-18 07:51:22 51°25.428 2°50.177 71.8 10.3 70 22.4
2005-10-18 07:51:27 51°25.433 2°50.199 72.1 10.2 71 22.4
2005-10-18 07:51:32 51°25.438 2°50.221 72.5 10.4 71 22.3
2005-10-18 07:51:37 51°25.442 2°50.242 72.8 10.4 72 22.4
2005-10-18 07:51:42 51°25.447 2°50.264 72.4 10.2 70 22.4
2005-10-18 07:51:47 51°25.451 2°50.285 72.3 10.3 73 22.5
2005-10-18 07:51:51 51°25.455 2°50.303 72.5 10.4 70 22.6
2005-10-18 07:51:57 51°25.461 2°50.33 72.4 10.5 71 22.5
2005-10-18 07:52:02 51°25.466 2°50.351 72.3 10.4 71 22.8
2005-10-18 07:52:07 51°25.47 2°50.373 72.3 10.4 71 22.8
2005-10-18 07:52:11 51°25.474 2°50.39 72.4 10.4 71 22.6
2005-10-18 07:52:17 51°25.48 2°50.417 72.5 10.5 72 22.6
2005-10-18 07:52:22 51°25.484 2°50.439 72.7 10.5 72 22.8
2005-10-18 07:52:27 51°25.489 2°50.461 72.9 10.4 71 22.7
2005-10-18 07:52:32 51°25.493 2°50.483 73.4 10.4 71 22.6
2005-10-18 07:52:37 51°25.498 2°50.505 73 10.4 72 22.6
2005-10-18 07:52:42 51°25.502 2°50.526 72.8 10.3 71 22.8
2005-10-18 07:52:47 51°25.507 2°50.548 72.7 10.4 71 22.8
2005-10-18 07:52:51 51°25.511 2°50.565 72.7 10.4 70 22.7
2005-10-18 07:52:57 51°25.516 2°50.591 72.4 10.4 71 22.7
2005-10-18 07:53:02 51°25.521 2°50.613 72.4 10.3 71 22.7
2005-10-18 07:53:07 51°25.526 2°50.635 72.3 10.3 71 22.5
2005-10-18 07:53:11 51°25.53 2°50.652 72.3 10.3 71 22.5
2005-10-18 07:53:17 51°25.535 2°50.678 72 10.5 72 22.4
2005-10-18 07:53:22 51°25.54 2°50.7 72.2 10.5 72 22.5
2005-10-18 07:53:27 51°25.545 2°50.722 73.2 10.4 71 22.6
2005-10-18 07:53:32 51°25.549 2°50.744 72.9 10.5 71 22.5
2005-10-18 07:53:37 51°25.554 2°50.766 72.5 10.4 71 22.5
2005-10-18 07:53:42 51°25.559 2°50.788 72.8 10.4 71 22.6
2005-10-18 07:53:47 51°25.564 2°50.809 72.5 10.3 71 22.7
2005-10-18 07:53:51 51°25.567 2°50.826 72 10.3 71 22.8
2005-10-18 07:53:57 51°25.573 2°50.852 71.7 10.5 70 22.9
2005-10-18 07:54:02 51°25.578 2°50.874 71.6 10.4 70 22.9
2005-10-18 07:54:07 51°25.583 2°50.895 72 10.4 70 22.9
2005-10-18 07:54:11 51°25.587 2°50.913 72.5 10.4 70 22.8
2005-10-18 07:54:17 51°25.592 2°50.94 72.6 10.6 71 22.8
2005-10-18 07:54:22 51°25.597 2°50.961 72.5 10.4 72 22.9
2005-10-18 07:54:27 51°25.601 2°50.983 72.6 10.4 72 22.8
2005-10-18 07:54:32 51°25.606 2°51.005 72.9 10.4 71 22.7
2005-10-18 07:54:37 51°25.611 2°51.027 72.3 10.5 70 22.7
2005-10-18 07:54:42 51°25.616 2°51.049 72.2 10.5 70 22.6
2005-10-18 07:54:47 51°25.62 2°51.07 72.1 10.4 71 22.7
2005-10-18 07:54:51 51°25.624 2°51.088 72.2 10.3 71 22.7
2005-10-18 07:54:57 51°25.63 2°51.114 72.7 10.4 70 22.7
2005-10-18 07:55:02 51°25.634 2°51.135 72.6 10.4 70 22.7
2005-10-18 07:55:07 51°25.639 2°51.156 72.2 10.3 71 22.6
2005-10-18 07:55:11 51°25.643 2°51.173 71.8 10.3 71 22.6
2005-10-18 07:55:17 51°25.649 2°51.2 71.8 10.2 71 22.4
2005-10-18 07:55:22 51°25.654 2°51.221 72.2 10.3 71 22.6
2005-10-18 07:55:27 51°25.658 2°51.242 71.8 10.3 70 22.6